sensor_id;sensor_type;location;lat;lon;timestamp;pressure;altitude;pressure_sealevel;temperature;humidity
35151;BME280;55720;51.972;4.624;2022-10-17T00:00:56;101171.16;;;15.41;100.00
35151;BME280;55720;51.972;4.624;2022-10-17T00:03:21;101177.41;;;15.38;100.00
35151;BME280;55720;51.972;4.624;2022-10-17T00:05:47;101183.38;;;15.40;100.00
35151;BME280;55720;51.972;4.624;2022-10-17T00:08:14;101185.53;;;15.46;100.00
35151;BME280;55720;51.972;4.624;2022-10-17T00:10:40;101178.56;;;15.37;100.00
35151;BME280;55720;51.972;4.624;2022-10-17T00:13:07;101171.88;;;15.22;100.00
35151;BME280;55720;51.972;4.624;2022-10-17T00:15:33;101168.91;;;15.15;100.00
35151;BME280;55720;51.972;4.624;2022-10-17T00:17:58;101173.47;;;15.23;100.00
35151;BME280;55720;51.972;4.624;2022-10-17T00:20:26;101173.66;;;15.14;100.00
35151;BME280;55720;51.972;4.624;2022-10-17T00:22:52;101174.34;;;15.11;100.00
35151;BME280;55720;51.972;4.624;2022-10-17T00:25:17;101177.38;;;15.06;100.00
35151;BME280;55720;51.972;4.624;2022-10-17T00:27:43;101186.44;;;14.91;100.00
35151;BME280;55720;51.972;4.624;2022-10-17T00:30:11;101183.09;;;15.13;100.00
35151;BME280;55720;51.972;4.624;2022-10-17T00:32:37;101173.88;;;14.94;100.00
35151;BME280;55720;51.972;4.624;2022-10-17T00:35:05;101172.94;;;15.17;100.00
35151;BME280;55720;51.972;4.624;2022-10-17T00:37:31;101168.00;;;15.26;100.00
35151;BME280;55720;51.972;4.624;2022-10-17T00:39:56;101170.34;;;15.24;100.00
35151;BME280;55720;51.972;4.624;2022-10-17T00:42:22;101157.94;;;15.18;100.00
35151;BME280;55720;51.972;4.624;2022-10-17T00:47:17;101166.78;;;15.40;100.00
35151;BME280;55720;51.972;4.624;2022-10-17T00:49:43;101153.59;;;15.33;100.00
35151;BME280;55720;51.972;4.624;2022-10-17T00:52:28;101155.97;;;15.35;100.00
35151;BME280;55720;51.972;4.624;2022-10-17T00:55:03;101160.53;;;15.43;100.00
35151;BME280;55720;51.972;4.624;2022-10-17T00:57:32;101144.06;;;15.62;100.00
35151;BME280;55720;51.972;4.624;2022-10-17T00:59:59;101143.06;;;15.54;100.00
35151;BME280;55720;51.972;4.624;2022-10-17T01:02:26;101150.63;;;15.42;100.00
35151;BME280;55720;51.972;4.624;2022-10-17T01:04:53;101148.69;;;15.58;100.00
35151;BME280;55720;51.972;4.624;2022-10-17T01:07:20;101144.94;;;15.50;100.00
35151;BME280;55720;51.972;4.624;2022-10-17T01:09:47;101138.78;;;15.57;100.00
35151;BME280;55720;51.972;4.624;2022-10-17T01:12:27;101129.84;;;15.63;100.00
35151;BME280;55720;51.972;4.624;2022-10-17T01:15:30;101129.75;;;15.60;100.00
35151;BME280;55720;51.972;4.624;2022-10-17T01:24:07;101120.94;;;15.54;100.00
35151;BME280;55720;51.972;4.624;2022-10-17T01:35:01;101096.28;;;15.49;100.00
35151;BME280;55720;51.972;4.624;2022-10-17T01:37:54;101091.88;;;15.64;100.00
35151;BME280;55720;51.972;4.624;2022-10-17T01:40:33;101082.53;;;15.53;100.00
35151;BME280;55720;51.972;4.624;2022-10-17T01:43:04;101094.75;;;15.67;100.00
35151;BME280;55720;51.972;4.624;2022-10-17T01:45:44;101093.50;;;15.65;100.00
35151;BME280;55720;51.972;4.624;2022-10-17T01:48:15;101091.00;;;15.60;100.00
35151;BME280;55720;51.972;4.624;2022-10-17T01:50:45;101093.25;;;15.54;100.00
35151;BME280;55720;51.972;4.624;2022-10-17T01:53:26;101089.50;;;15.62;100.00
35151;BME280;55720;51.972;4.624;2022-10-17T01:55:55;101094.38;;;15.69;100.00
35151;BME280;55720;51.972;4.624;2022-10-17T01:58:29;101088.38;;;15.83;100.00
35151;BME280;55720;51.972;4.624;2022-10-17T02:00:58;101088.22;;;15.75;100.00
35151;BME280;55720;51.972;4.624;2022-10-17T02:03:27;101081.03;;;15.55;100.00
35151;BME280;55720;51.972;4.624;2022-10-17T02:05:53;101079.56;;;15.77;100.00
35151;BME280;55720;51.972;4.624;2022-10-17T02:08:27;101075.34;;;15.83;100.00
35151;BME280;55720;51.972;4.624;2022-10-17T02:11:00;101066.59;;;16.00;100.00
35151;BME280;55720;51.972;4.624;2022-10-17T02:24:54;101071.91;;;15.90;100.00
35151;BME280;55720;51.972;4.624;2022-10-17T02:29:55;101063.81;;;16.00;100.00
35151;BME280;55720;51.972;4.624;2022-10-17T02:32:28;101065.56;;;15.89;100.00
35151;BME280;55720;51.972;4.624;2022-10-17T02:34:59;101071.84;;;15.86;100.00
35151;BME280;55720;51.972;4.624;2022-10-17T02:37:28;101089.75;;;15.92;100.00
35151;BME280;55720;51.972;4.624;2022-10-17T02:39:56;101085.47;;;15.95;100.00
35151;BME280;55720;51.972;4.624;2022-10-17T02:42:24;101087.13;;;15.99;100.00
35151;BME280;55720;51.972;4.624;2022-10-17T02:44:52;101088.88;;;15.88;100.00
35151;BME280;55720;51.972;4.624;2022-10-17T02:47:34;101087.94;;;16.00;100.00
35151;BME280;55720;51.972;4.624;2022-10-17T02:50:01;101089.94;;;15.64;100.00
35151;BME280;55720;51.972;4.624;2022-10-17T02:52:37;101107.34;;;15.65;100.00
35151;BME280;55720;51.972;4.624;2022-10-17T02:55:29;101125.69;;;15.89;100.00
35151;BME280;55720;51.972;4.624;2022-10-17T02:57:59;101126.16;;;16.10;100.00
35151;BME280;55720;51.972;4.624;2022-10-17T03:00:28;101117.34;;;16.04;100.00
35151;BME280;55720;51.972;4.624;2022-10-17T03:02:54;101121.25;;;16.03;100.00
35151;BME280;55720;51.972;4.624;2022-10-17T03:05:28;101135.94;;;16.23;100.00
35151;BME280;55720;51.972;4.624;2022-10-17T03:07:54;101132.59;;;16.33;100.00
35151;BME280;55720;51.972;4.624;2022-10-17T03:10:21;101120.41;;;16.18;100.00
35151;BME280;55720;51.972;4.624;2022-10-17T03:12:46;101110.91;;;16.39;100.00
35151;BME280;55720;51.972;4.624;2022-10-17T03:15:12;101104.53;;;16.35;100.00
35151;BME280;55720;51.972;4.624;2022-10-17T03:17:38;101113.06;;;16.45;100.00
35151;BME280;55720;51.972;4.624;2022-10-17T03:20:04;101108.06;;;16.54;100.00
35151;BME280;55720;51.972;4.624;2022-10-17T03:22:31;101107.75;;;16.56;100.00
35151;BME280;55720;51.972;4.624;2022-10-17T03:24:56;101103.22;;;16.67;100.00
35151;BME280;55720;51.972;4.624;2022-10-17T03:27:22;101106.00;;;16.67;100.00
35151;BME280;55720;51.972;4.624;2022-10-17T03:29:47;101105.94;;;16.63;100.00
35151;BME280;55720;51.972;4.624;2022-10-17T03:32:13;101107.97;;;16.66;100.00
35151;BME280;55720;51.972;4.624;2022-10-17T03:34:38;101104.38;;;16.66;100.00
35151;BME280;55720;51.972;4.624;2022-10-17T03:37:03;101104.53;;;16.73;100.00
35151;BME280;55720;51.972;4.624;2022-10-17T03:39:29;101096.13;;;16.69;100.00
35151;BME280;55720;51.972;4.624;2022-10-17T03:41:55;101098.69;;;16.78;100.00
35151;BME280;55720;51.972;4.624;2022-10-17T03:44:20;101104.44;;;16.69;100.00
35151;BME280;55720;51.972;4.624;2022-10-17T03:46:45;101105.53;;;16.65;100.00
35151;BME280;55720;51.972;4.624;2022-10-17T03:49:11;101114.38;;;16.70;100.00
35151;BME280;55720;51.972;4.624;2022-10-17T03:51:36;101106.06;;;16.70;100.00
35151;BME280;55720;51.972;4.624;2022-10-17T03:54:02;101123.94;;;16.73;100.00
35151;BME280;55720;51.972;4.624;2022-10-17T03:56:28;101119.09;;;16.89;100.00
35151;BME280;55720;51.972;4.624;2022-10-17T03:58:54;101134.06;;;16.85;100.00
35151;BME280;55720;51.972;4.624;2022-10-17T04:01:20;101133.53;;;16.79;100.00
35151;BME280;55720;51.972;4.624;2022-10-17T04:03:51;101127.63;;;17.00;100.00
35151;BME280;55720;51.972;4.624;2022-10-17T04:06:17;101112.47;;;16.97;100.00
35151;BME280;55720;51.972;4.624;2022-10-17T04:08:43;101085.72;;;16.86;100.00
35151;BME280;55720;51.972;4.624;2022-10-17T04:11:10;101105.22;;;16.89;100.00
35151;BME280;55720;51.972;4.624;2022-10-17T04:13:40;101127.97;;;16.98;100.00
35151;BME280;55720;51.972;4.624;2022-10-17T04:16:09;101105.34;;;16.96;100.00
35151;BME280;55720;51.972;4.624;2022-10-17T04:18:34;101108.00;;;16.89;100.00
35151;BME280;55720;51.972;4.624;2022-10-17T04:21:01;101111.44;;;17.05;100.00
35151;BME280;55720;51.972;4.624;2022-10-17T04:23:27;101115.63;;;17.18;100.00
35151;BME280;55720;51.972;4.624;2022-10-17T04:25:57;101109.47;;;17.29;100.00
35151;BME280;55720;51.972;4.624;2022-10-17T04:28:23;101111.75;;;17.23;100.00
35151;BME280;55720;51.972;4.624;2022-10-17T04:30:59;101111.13;;;17.33;100.00
35151;BME280;55720;51.972;4.624;2022-10-17T04:33:25;101112.91;;;17.22;100.00
35151;BME280;55720;51.972;4.624;2022-10-17T04:35:59;101113.31;;;17.20;100.00
35151;BME280;55720;51.972;4.624;2022-10-17T04:38:26;101117.47;;;17.34;100.00
35151;BME280;55720;51.972;4.624;2022-10-17T04:40:51;101113.78;;;17.26;100.00
35151;BME280;55720;51.972;4.624;2022-10-17T04:43:16;101111.06;;;17.30;100.00
35151;BME280;55720;51.972;4.624;2022-10-17T04:45:42;101101.41;;;17.20;100.00
35151;BME280;55720;51.972;4.624;2022-10-17T04:48:07;101113.25;;;17.17;100.00
35151;BME280;55720;51.972;4.624;2022-10-17T04:50:33;101113.59;;;17.15;100.00
35151;BME280;55720;51.972;4.624;2022-10-17T04:52:58;101108.84;;;17.16;100.00
35151;BME280;55720;51.972;4.624;2022-10-17T04:55:23;101111.63;;;17.16;100.00
35151;BME280;55720;51.972;4.624;2022-10-17T04:57:49;101112.56;;;17.23;100.00
35151;BME280;55720;51.972;4.624;2022-10-17T05:00:14;101126.13;;;17.29;100.00
35151;BME280;55720;51.972;4.624;2022-10-17T05:02:40;101122.72;;;17.16;100.00
35151;BME280;55720;51.972;4.624;2022-10-17T05:05:05;101125.56;;;17.42;100.00
35151;BME280;55720;51.972;4.624;2022-10-17T05:07:31;101112.03;;;17.41;100.00
35151;BME280;55720;51.972;4.624;2022-10-17T05:09:56;101121.28;;;17.48;100.00
35151;BME280;55720;51.972;4.624;2022-10-17T05:12:22;101134.06;;;17.53;100.00
35151;BME280;55720;51.972;4.624;2022-10-17T05:14:48;101135.84;;;17.42;100.00
35151;BME280;55720;51.972;4.624;2022-10-17T05:17:13;101138.06;;;17.55;100.00
35151;BME280;55720;51.972;4.624;2022-10-17T05:19:39;101141.13;;;17.47;100.00
35151;BME280;55720;51.972;4.624;2022-10-17T05:22:04;101129.50;;;17.64;100.00
35151;BME280;55720;51.972;4.624;2022-10-17T05:24:29;101122.47;;;17.47;100.00
35151;BME280;55720;51.972;4.624;2022-10-17T05:26:55;101138.81;;;17.30;100.00
35151;BME280;55720;51.972;4.624;2022-10-17T05:29:20;101135.19;;;17.26;100.00
35151;BME280;55720;51.972;4.624;2022-10-17T05:31:46;101131.00;;;17.35;100.00
35151;BME280;55720;51.972;4.624;2022-10-17T05:34:11;101141.91;;;17.25;100.00
35151;BME280;55720;51.972;4.624;2022-10-17T05:36:37;101145.34;;;17.41;100.00
35151;BME280;55720;51.972;4.624;2022-10-17T05:39:02;101142.16;;;17.39;100.00
35151;BME280;55720;51.972;4.624;2022-10-17T05:41:28;101143.78;;;17.40;100.00
35151;BME280;55720;51.972;4.624;2022-10-17T05:43:53;101142.03;;;17.32;100.00
35151;BME280;55720;51.972;4.624;2022-10-17T05:46:19;101158.31;;;17.33;100.00
35151;BME280;55720;51.972;4.624;2022-10-17T05:48:44;101163.00;;;17.29;100.00
35151;BME280;55720;51.972;4.624;2022-10-17T05:51:10;101146.44;;;17.33;100.00
35151;BME280;55720;51.972;4.624;2022-10-17T05:53:38;101148.69;;;17.50;100.00
35151;BME280;55720;51.972;4.624;2022-10-17T05:56:05;101146.72;;;17.28;100.00
35151;BME280;55720;51.972;4.624;2022-10-17T05:58:32;101141.91;;;17.25;100.00
35151;BME280;55720;51.972;4.624;2022-10-17T06:01:00;101143.50;;;17.26;100.00
35151;BME280;55720;51.972;4.624;2022-10-17T06:03:26;101153.56;;;17.11;100.00
35151;BME280;55720;51.972;4.624;2022-10-17T06:05:51;101164.81;;;17.18;100.00
35151;BME280;55720;51.972;4.624;2022-10-17T06:08:17;101165.22;;;17.20;100.00
35151;BME280;55720;51.972;4.624;2022-10-17T06:10:45;101183.53;;;17.25;100.00
35151;BME280;55720;51.972;4.624;2022-10-17T06:13:11;101189.50;;;17.27;100.00
35151;BME280;55720;51.972;4.624;2022-10-17T06:15:36;101196.38;;;17.33;100.00
35151;BME280;55720;51.972;4.624;2022-10-17T06:18:01;101196.00;;;17.34;100.00
35151;BME280;55720;51.972;4.624;2022-10-17T06:20:27;101203.72;;;17.21;100.00
35151;BME280;55720;51.972;4.624;2022-10-17T06:22:52;101217.66;;;17.25;100.00
35151;BME280;55720;51.972;4.624;2022-10-17T06:25:17;101214.63;;;17.34;100.00
35151;BME280;55720;51.972;4.624;2022-10-17T06:27:42;101216.66;;;17.37;100.00
35151;BME280;55720;51.972;4.624;2022-10-17T06:30:08;101224.56;;;17.35;100.00
35151;BME280;55720;51.972;4.624;2022-10-17T06:32:33;101217.34;;;17.30;100.00
35151;BME280;55720;51.972;4.624;2022-10-17T06:34:59;101226.81;;;17.29;100.00
35151;BME280;55720;51.972;4.624;2022-10-17T06:37:24;101227.13;;;17.24;100.00
35151;BME280;55720;51.972;4.624;2022-10-17T06:39:49;101235.88;;;17.26;100.00
35151;BME280;55720;51.972;4.624;2022-10-17T06:42:15;101240.78;;;17.33;100.00
35151;BME280;55720;51.972;4.624;2022-10-17T06:44:40;101233.38;;;17.40;100.00
35151;BME280;55720;51.972;4.624;2022-10-17T06:47:06;101225.63;;;17.49;100.00
35151;BME280;55720;51.972;4.624;2022-10-17T06:49:31;101221.09;;;17.41;100.00
35151;BME280;55720;51.972;4.624;2022-10-17T06:51:58;101249.38;;;17.47;100.00
35151;BME280;55720;51.972;4.624;2022-10-17T06:54:24;101269.59;;;17.47;100.00
35151;BME280;55720;51.972;4.624;2022-10-17T06:56:49;101271.34;;;17.55;100.00
35151;BME280;55720;51.972;4.624;2022-10-17T06:59:14;101268.41;;;17.67;100.00
35151;BME280;55720;51.972;4.624;2022-10-17T07:01:40;101274.38;;;17.69;100.00
35151;BME280;55720;51.972;4.624;2022-10-17T07:04:05;101275.19;;;17.70;100.00
35151;BME280;55720;51.972;4.624;2022-10-17T07:06:31;101290.63;;;17.67;100.00
35151;BME280;55720;51.972;4.624;2022-10-17T07:08:56;101312.09;;;17.70;100.00
35151;BME280;55720;51.972;4.624;2022-10-17T07:11:21;101331.25;;;17.76;100.00
35151;BME280;55720;51.972;4.624;2022-10-17T07:13:47;101323.88;;;17.83;100.00
35151;BME280;55720;51.972;4.624;2022-10-17T07:16:14;101324.97;;;18.01;100.00
35151;BME280;55720;51.972;4.624;2022-10-17T07:18:40;101327.59;;;17.94;100.00
35151;BME280;55720;51.972;4.624;2022-10-17T07:21:06;101347.78;;;17.91;100.00
35151;BME280;55720;51.972;4.624;2022-10-17T07:23:33;101355.91;;;18.00;100.00
35151;BME280;55720;51.972;4.624;2022-10-17T07:26:03;101375.00;;;18.01;100.00
35151;BME280;55720;51.972;4.624;2022-10-17T07:28:32;101388.88;;;18.01;100.00
35151;BME280;55720;51.972;4.624;2022-10-17T07:31:15;101419.94;;;18.07;100.00
35151;BME280;55720;51.972;4.624;2022-10-17T07:33:41;101442.66;;;18.12;100.00
35151;BME280;55720;51.972;4.624;2022-10-17T07:36:07;101444.88;;;18.03;100.00
35151;BME280;55720;51.972;4.624;2022-10-17T07:38:33;101444.66;;;18.12;100.00
35151;BME280;55720;51.972;4.624;2022-10-17T07:41:02;101449.16;;;18.20;100.00
35151;BME280;55720;51.972;4.624;2022-10-17T07:43:29;101442.94;;;18.27;100.00
35151;BME280;55720;51.972;4.624;2022-10-17T07:45:54;101472.19;;;18.20;100.00
35151;BME280;55720;51.972;4.624;2022-10-17T07:48:21;101487.19;;;18.16;100.00
35151;BME280;55720;51.972;4.624;2022-10-17T07:50:46;101491.44;;;18.10;100.00
35151;BME280;55720;51.972;4.624;2022-10-17T07:53:12;101497.53;;;18.15;100.00
35151;BME280;55720;51.972;4.624;2022-10-17T07:55:38;101495.38;;;18.28;100.00
35151;BME280;55720;51.972;4.624;2022-10-17T07:58:03;101495.59;;;18.19;100.00
35151;BME280;55720;51.972;4.624;2022-10-17T08:00:29;101492.31;;;18.14;100.00
35151;BME280;55720;51.972;4.624;2022-10-17T08:02:54;101492.97;;;18.27;100.00
35151;BME280;55720;51.972;4.624;2022-10-17T08:05:22;101490.88;;;18.43;100.00
35151;BME280;55720;51.972;4.624;2022-10-17T08:07:47;101492.44;;;18.40;100.00
35151;BME280;55720;51.972;4.624;2022-10-17T08:10:14;101495.44;;;18.51;100.00
35151;BME280;55720;51.972;4.624;2022-10-17T08:12:39;101493.25;;;18.41;100.00
35151;BME280;55720;51.972;4.624;2022-10-17T08:15:06;101491.91;;;18.54;100.00
35151;BME280;55720;51.972;4.624;2022-10-17T08:17:35;101490.13;;;18.65;100.00
35151;BME280;55720;51.972;4.624;2022-10-17T08:20:02;101476.44;;;18.56;100.00
35151;BME280;55720;51.972;4.624;2022-10-17T08:22:28;101489.31;;;18.45;100.00
35151;BME280;55720;51.972;4.624;2022-10-17T08:24:54;101477.69;;;18.59;100.00
35151;BME280;55720;51.972;4.624;2022-10-17T08:27:19;101476.91;;;18.58;100.00
35151;BME280;55720;51.972;4.624;2022-10-17T08:29:50;101483.56;;;18.54;100.00
35151;BME280;55720;51.972;4.624;2022-10-17T08:32:23;101480.84;;;18.57;100.00
35151;BME280;55720;51.972;4.624;2022-10-17T08:34:50;101460.22;;;18.58;100.00
35151;BME280;55720;51.972;4.624;2022-10-17T08:37:15;101452.16;;;18.76;100.00
35151;BME280;55720;51.972;4.624;2022-10-17T08:39:41;101449.25;;;18.69;100.00
35151;BME280;55720;51.972;4.624;2022-10-17T08:45:04;101416.72;;;18.99;100.00
35151;BME280;55720;51.972;4.624;2022-10-17T08:48:00;101434.63;;;18.98;100.00
35151;BME280;55720;51.972;4.624;2022-10-17T08:53:07;101421.06;;;18.97;100.00
35151;BME280;55720;51.972;4.624;2022-10-17T08:55:37;101430.16;;;18.94;100.00
35151;BME280;55720;51.972;4.624;2022-10-17T08:58:14;101450.56;;;19.01;100.00
35151;BME280;55720;51.972;4.624;2022-10-17T09:00:47;101446.97;;;19.01;100.00
35151;BME280;55720;51.972;4.624;2022-10-17T09:03:52;101461.09;;;19.15;100.00
35151;BME280;55720;51.972;4.624;2022-10-17T09:06:31;101449.66;;;18.94;100.00
35151;BME280;55720;51.972;4.624;2022-10-17T09:09:07;101442.72;;;19.10;100.00
35151;BME280;55720;51.972;4.624;2022-10-17T09:11:55;101444.78;;;19.13;100.00
35151;BME280;55720;51.972;4.624;2022-10-17T09:17:23;101420.59;;;19.21;100.00
35151;BME280;55720;51.972;4.624;2022-10-17T09:20:04;101448.84;;;19.20;100.00
35151;BME280;55720;51.972;4.624;2022-10-17T09:22:40;101431.09;;;19.31;100.00
35151;BME280;55720;51.972;4.624;2022-10-17T09:25:12;101417.22;;;19.35;100.00
35151;BME280;55720;51.972;4.624;2022-10-17T09:27:48;101414.69;;;19.52;100.00
35151;BME280;55720;51.972;4.624;2022-10-17T09:32:43;101405.66;;;19.33;100.00
35151;BME280;55720;51.972;4.624;2022-10-17T09:35:13;101409.56;;;19.58;100.00
35151;BME280;55720;51.972;4.624;2022-10-17T09:37:39;101410.03;;;19.60;100.00
35151;BME280;55720;51.972;4.624;2022-10-17T09:40:07;101430.34;;;19.34;100.00
35151;BME280;55720;51.972;4.624;2022-10-17T09:42:36;101444.28;;;19.34;100.00
35151;BME280;55720;51.972;4.624;2022-10-17T09:45:12;101455.06;;;19.39;100.00
35151;BME280;55720;51.972;4.624;2022-10-17T09:47:44;101475.38;;;19.40;100.00
35151;BME280;55720;51.972;4.624;2022-10-17T09:50:19;101472.56;;;19.40;100.00
35151;BME280;55720;51.972;4.624;2022-10-17T09:52:45;101466.75;;;19.22;100.00
35151;BME280;55720;51.972;4.624;2022-10-17T09:55:21;101454.44;;;19.49;100.00
35151;BME280;55720;51.972;4.624;2022-10-17T09:58:01;101477.81;;;19.41;100.00
35151;BME280;55720;51.972;4.624;2022-10-17T10:00:29;101483.84;;;19.21;100.00
35151;BME280;55720;51.972;4.624;2022-10-17T10:03:24;101483.94;;;19.54;100.00
35151;BME280;55720;51.972;4.624;2022-10-17T10:06:15;101491.88;;;19.52;100.00
35151;BME280;55720;51.972;4.624;2022-10-17T10:08:52;101497.63;;;19.40;100.00
35151;BME280;55720;51.972;4.624;2022-10-17T10:11:25;101503.09;;;19.33;100.00
35151;BME280;55720;51.972;4.624;2022-10-17T10:14:17;101502.75;;;19.34;100.00
35151;BME280;55720;51.972;4.624;2022-10-17T10:16:44;101505.69;;;19.18;100.00
35151;BME280;55720;51.972;4.624;2022-10-17T10:19:31;101513.06;;;19.34;100.00
35151;BME280;55720;51.972;4.624;2022-10-17T10:22:03;101517.25;;;19.21;100.00
35151;BME280;55720;51.972;4.624;2022-10-17T10:24:29;101516.59;;;19.04;100.00
35151;BME280;55720;51.972;4.624;2022-10-17T10:26:59;101530.31;;;19.16;100.00
35151;BME280;55720;51.972;4.624;2022-10-17T10:29:32;101536.19;;;19.11;100.00
35151;BME280;55720;51.972;4.624;2022-10-17T10:32:15;101542.50;;;19.08;100.00
35151;BME280;55720;51.972;4.624;2022-10-17T10:34:58;101544.28;;;19.20;100.00
35151;BME280;55720;51.972;4.624;2022-10-17T10:37:32;101549.13;;;19.23;100.00
35151;BME280;55720;51.972;4.624;2022-10-17T10:40:01;101545.53;;;19.23;100.00
35151;BME280;55720;51.972;4.624;2022-10-17T10:42:31;101547.09;;;19.46;100.00
35151;BME280;55720;51.972;4.624;2022-10-17T10:45:02;101545.13;;;19.47;100.00
35151;BME280;55720;51.972;4.624;2022-10-17T10:47:30;101546.25;;;19.42;100.00
35151;BME280;55720;51.972;4.624;2022-10-17T10:50:08;101541.47;;;19.43;100.00
35151;BME280;55720;51.972;4.624;2022-10-17T10:53:44;101548.59;;;19.17;100.00
35151;BME280;55720;51.972;4.624;2022-10-17T11:00:51;101547.28;;;19.08;100.00
35151;BME280;55720;51.972;4.624;2022-10-17T11:03:22;101551.91;;;19.23;100.00
35151;BME280;55720;51.972;4.624;2022-10-17T11:05:55;101558.22;;;19.20;100.00
35151;BME280;55720;51.972;4.624;2022-10-17T11:08:37;101568.09;;;19.17;100.00
35151;BME280;55720;51.972;4.624;2022-10-17T11:11:23;101577.25;;;19.18;100.00
35151;BME280;55720;51.972;4.624;2022-10-17T11:19:23;101573.16;;;19.35;100.00
35151;BME280;55720;51.972;4.624;2022-10-17T11:24:45;101564.59;;;19.73;100.00
35151;BME280;55720;51.972;4.624;2022-10-17T11:27:12;101558.84;;;19.89;100.00
35151;BME280;55720;51.972;4.624;2022-10-17T11:29:40;101565.69;;;19.39;100.00
35151;BME280;55720;51.972;4.624;2022-10-17T11:32:33;101582.25;;;19.32;100.00
35151;BME280;55720;51.972;4.624;2022-10-17T11:35:15;101593.66;;;19.23;100.00
35151;BME280;55720;51.972;4.624;2022-10-17T11:37:52;101605.66;;;19.27;100.00
35151;BME280;55720;51.972;4.624;2022-10-17T11:40:30;101625.44;;;18.99;100.00
35151;BME280;55720;51.972;4.624;2022-10-17T11:43:14;101631.28;;;19.13;100.00
35151;BME280;55720;51.972;4.624;2022-10-17T11:45:45;101640.09;;;18.96;100.00
35151;BME280;55720;51.972;4.624;2022-10-17T11:48:26;101642.84;;;19.15;100.00
35151;BME280;55720;51.972;4.624;2022-10-17T11:51:07;101642.66;;;19.05;100.00
35151;BME280;55720;51.972;4.624;2022-10-17T11:53:48;101646.69;;;19.30;100.00
35151;BME280;55720;51.972;4.624;2022-10-17T11:56:16;101657.28;;;19.44;100.00
35151;BME280;55720;51.972;4.624;2022-10-17T11:58:50;101639.53;;;19.78;100.00
35151;BME280;55720;51.972;4.624;2022-10-17T12:06:49;101599.84;;;20.18;100.00
35151;BME280;55720;51.972;4.624;2022-10-17T12:09:41;101593.09;;;20.52;100.00
35151;BME280;55720;51.972;4.624;2022-10-17T12:12:09;101593.31;;;20.37;100.00
35151;BME280;55720;51.972;4.624;2022-10-17T12:14:41;101593.75;;;20.76;100.00
35151;BME280;55720;51.972;4.624;2022-10-17T12:17:32;101610.06;;;20.74;100.00
35151;BME280;55720;51.972;4.624;2022-10-17T12:20:36;101624.22;;;20.54;100.00
35151;BME280;55720;51.972;4.624;2022-10-17T12:25:51;101619.72;;;20.43;100.00
35151;BME280;55720;51.972;4.624;2022-10-17T12:28:45;101633.78;;;20.53;100.00
35151;BME280;55720;51.972;4.624;2022-10-17T12:54:50;101666.88;;;20.55;100.00
35151;BME280;55720;51.972;4.624;2022-10-17T12:57:24;101678.34;;;20.46;100.00
35151;BME280;55720;51.972;4.624;2022-10-17T12:59:52;101679.00;;;20.36;100.00
35151;BME280;55720;51.972;4.624;2022-10-17T13:02:23;101680.97;;;20.36;100.00
35151;BME280;55720;51.972;4.624;2022-10-17T13:04:57;101689.44;;;20.17;100.00
35151;BME280;55720;51.972;4.624;2022-10-17T13:07:27;101685.66;;;20.28;100.00
35151;BME280;55720;51.972;4.624;2022-10-17T13:09:52;101692.41;;;20.01;100.00
35151;BME280;55720;51.972;4.624;2022-10-17T13:12:22;101705.97;;;20.02;100.00
35151;BME280;55720;51.972;4.624;2022-10-17T13:14:51;101702.53;;;20.12;100.00
35151;BME280;55720;51.972;4.624;2022-10-17T13:17:25;101703.94;;;20.26;100.00
35151;BME280;55720;51.972;4.624;2022-10-17T13:19:52;101721.50;;;19.77;100.00
35151;BME280;55720;51.972;4.624;2022-10-17T13:22:19;101720.13;;;19.90;100.00
35151;BME280;55720;51.972;4.624;2022-10-17T13:24:46;101726.34;;;20.06;100.00
35151;BME280;55720;51.972;4.624;2022-10-17T13:27:32;101722.78;;;20.32;100.00
35151;BME280;55720;51.972;4.624;2022-10-17T13:29:59;101729.56;;;20.35;100.00
35151;BME280;55720;51.972;4.624;2022-10-17T13:32:33;101737.47;;;20.29;100.00
35151;BME280;55720;51.972;4.624;2022-10-17T13:35:14;101741.34;;;20.25;100.00
35151;BME280;55720;51.972;4.624;2022-10-17T13:37:42;101742.59;;;20.53;100.00
35151;BME280;55720;51.972;4.624;2022-10-17T13:40:20;101741.56;;;20.65;100.00
35151;BME280;55720;51.972;4.624;2022-10-17T13:42:46;101753.75;;;20.53;100.00
35151;BME280;55720;51.972;4.624;2022-10-17T13:45:28;101746.72;;;20.37;100.00
35151;BME280;55720;51.972;4.624;2022-10-17T13:47:54;101758.47;;;20.49;100.00
35151;BME280;55720;51.972;4.624;2022-10-17T13:50:30;101756.81;;;20.45;100.00
35151;BME280;55720;51.972;4.624;2022-10-17T13:53:16;101757.81;;;20.59;100.00
35151;BME280;55720;51.972;4.624;2022-10-17T13:58:16;101753.94;;;20.68;100.00
35151;BME280;55720;51.972;4.624;2022-10-17T14:00:45;101756.84;;;20.78;100.00
35151;BME280;55720;51.972;4.624;2022-10-17T14:03:11;101755.91;;;20.37;100.00
35151;BME280;55720;51.972;4.624;2022-10-17T14:08:28;101756.44;;;20.76;100.00
35151;BME280;55720;51.972;4.624;2022-10-17T14:10:54;101759.84;;;20.62;100.00
35151;BME280;55720;51.972;4.624;2022-10-17T14:13:28;101752.81;;;21.09;100.00
35151;BME280;55720;51.972;4.624;2022-10-17T14:15:56;101772.97;;;21.22;100.00
35151;BME280;55720;51.972;4.624;2022-10-17T14:18:26;101787.63;;;21.48;100.00
35151;BME280;55720;51.972;4.624;2022-10-17T14:20:52;101812.53;;;20.97;100.00
35151;BME280;55720;51.972;4.624;2022-10-17T14:23:39;101817.91;;;20.80;100.00
35151;BME280;55720;51.972;4.624;2022-10-17T14:26:12;101823.91;;;20.55;100.00
35151;BME280;55720;51.972;4.624;2022-10-17T14:28:39;101824.63;;;20.26;100.00